createdAt,value
2023-01-19T00:00:04.182Z,44.4
2023-01-19T00:01:05.659Z,44.4
2023-01-19T00:02:07.057Z,44.4
2023-01-19T00:03:08.457Z,44.5
2023-01-19T00:04:09.840Z,44.5
2023-01-19T00:05:11.264Z,44.6
2023-01-19T00:06:12.787Z,44.5
2023-01-19T00:07:14.259Z,44.5
2023-01-19T00:08:15.711Z,44.7
2023-01-19T00:09:17.172Z,44.7
2023-01-19T00:10:18.591Z,44.7
2023-01-19T00:11:20.038Z,44.5
2023-01-19T00:12:21.455Z,44.4
2023-01-19T00:13:22.879Z,44.5
2023-01-19T00:14:24.291Z,44.7
2023-01-19T00:15:25.694Z,44.4
2023-01-19T00:16:27.225Z,44.7
2023-01-19T00:17:28.670Z,44.7
2023-01-19T00:18:30.065Z,44.6
2023-01-19T00:19:31.477Z,44.7
2023-01-19T00:20:33.110Z,44.5
2023-01-19T00:21:34.662Z,44.7
2023-01-19T00:22:36.070Z,44.7
2023-01-19T00:23:37.453Z,44.7
2023-01-19T00:24:38.902Z,44.6
2023-01-19T00:25:40.285Z,44.7
2023-01-19T00:26:41.680Z,44.6
2023-01-19T00:27:43.071Z,44.7
2023-01-19T00:28:44.530Z,44.6
2023-01-19T00:29:45.948Z,44.8
2023-01-19T00:30:47.351Z,44.8
2023-01-19T00:31:48.897Z,45
2023-01-19T00:32:50.422Z,45
2023-01-19T00:33:51.849Z,44.9
2023-01-19T00:34:53.342Z,45.1
2023-01-19T00:35:54.809Z,45.1
2023-01-19T00:36:56.236Z,45
2023-01-19T00:37:57.652Z,45.2
2023-01-19T00:38:59.056Z,45.1
2023-01-19T00:40:00.565Z,45.1
2023-01-19T00:41:01.950Z,45.2
2023-01-19T00:42:03.355Z,45.1
2023-01-19T00:43:04.767Z,45
2023-01-19T00:44:06.194Z,45.3
2023-01-19T00:45:07.588Z,45.2
2023-01-19T00:46:09.316Z,45.2
2023-01-19T00:47:10.753Z,45.3
2023-01-19T00:48:12.213Z,45.2
2023-01-19T00:49:13.616Z,45.3
2023-01-19T00:50:15.030Z,45.2
2023-01-19T00:51:16.433Z,45.2
2023-01-19T00:52:17.838Z,45.1
2023-01-19T00:53:19.273Z,45.1
2023-01-19T00:54:20.713Z,45.1
2023-01-19T00:55:22.199Z,45.1
2023-01-19T00:56:23.616Z,45
2023-01-19T00:57:25.057Z,45
2023-01-19T00:58:26.465Z,45
2023-01-19T00:59:27.876Z,45
2023-01-19T01:00:29.291Z,45
2023-01-19T01:01:46.665Z,45
2023-01-19T01:02:48.397Z,44.9
2023-01-19T01:03:49.820Z,44.8
2023-01-19T01:04:51.236Z,44.9
2023-01-19T01:05:52.647Z,44.8
2023-01-19T01:06:54.023Z,45
2023-01-19T01:07:55.405Z,44.9
2023-01-19T01:08:56.799Z,45.1
2023-01-19T01:09:58.186Z,44.9
2023-01-19T01:10:59.681Z,45
2023-01-19T01:12:01.089Z,45.1
2023-01-19T01:13:21.678Z,44.9
2023-01-19T01:14:25.223Z,45.2
2023-01-19T01:15:26.862Z,45.4
2023-01-19T01:16:28.353Z,45.3
2023-01-19T01:17:29.843Z,45.5
2023-01-19T01:18:31.249Z,45.1
2023-01-19T01:19:32.638Z,45.5
2023-01-19T01:20:34.041Z,45.6
2023-01-19T01:21:35.458Z,45.6
2023-01-19T01:22:36.919Z,45.6
2023-01-19T01:23:38.323Z,45.7
2023-01-19T01:24:39.736Z,45.8
2023-01-19T01:25:41.202Z,45.9
2023-01-19T01:26:42.648Z,46
2023-01-19T01:27:44.053Z,46
2023-01-19T01:28:45.698Z,46
2023-01-19T01:29:47.088Z,46.1
2023-01-19T01:30:48.649Z,46.1
2023-01-19T01:31:50.233Z,46.3
2023-01-19T01:32:51.740Z,46.2
2023-01-19T01:33:53.154Z,46.3
2023-01-19T01:34:54.566Z,46.3
2023-01-19T01:35:55.968Z,46.5
2023-01-19T01:36:57.372Z,46.3
2023-01-19T01:37:58.791Z,46.3
2023-01-19T01:39:00.199Z,46.3
2023-01-19T01:40:01.614Z,46.3
2023-01-19T01:41:03.014Z,46.3
2023-01-19T01:42:04.442Z,46.4
2023-01-19T01:43:06.532Z,46.3
2023-01-19T01:44:09.012Z,46.5
2023-01-19T01:45:10.811Z,46.4
2023-01-19T01:46:12.292Z,46.4
2023-01-19T01:47:13.713Z,46.6
2023-01-19T01:48:15.266Z,46.3
2023-01-19T01:49:16.657Z,46.5
2023-01-19T01:50:18.049Z,46.4
2023-01-19T01:51:19.452Z,46.4
2023-01-19T01:52:20.866Z,46.5
2023-01-19T01:53:22.384Z,46.5
2023-01-19T01:54:23.773Z,46.3
2023-01-19T01:55:25.365Z,46.6
2023-01-19T01:56:26.771Z,46.6
2023-01-19T01:57:28.494Z,46.6
2023-01-19T01:58:29.885Z,46.5
2023-01-19T01:59:31.277Z,46.7
2023-01-19T02:00:32.690Z,46.5
2023-01-19T02:01:34.564Z,46.6
2023-01-19T02:02:36.078Z,46.9
2023-01-19T02:03:37.616Z,46.6
2023-01-19T02:04:39.057Z,46.9
2023-01-19T02:05:40.459Z,46.6
2023-01-19T02:06:41.881Z,46.6
2023-01-19T02:07:43.324Z,46.9
2023-01-19T02:08:44.748Z,46.6
2023-01-19T02:09:46.149Z,46.8
2023-01-19T02:10:47.702Z,46.7
2023-01-19T02:11:49.114Z,46.9
2023-01-19T02:12:50.583Z,46.6
2023-01-19T02:13:52.003Z,46.6
2023-01-19T02:14:53.413Z,46.9
2023-01-19T02:15:54.851Z,46.9
2023-01-19T02:16:56.546Z,46.7
2023-01-19T02:17:58.033Z,46.8
2023-01-19T02:18:59.416Z,46.9
2023-01-19T02:20:00.838Z,46.6
2023-01-19T02:21:02.244Z,46.7
2023-01-19T02:22:03.624Z,46.8
2023-01-19T02:23:05.018Z,46.6
2023-01-19T02:24:06.420Z,46.8
2023-01-19T02:25:07.835Z,46.7
2023-01-19T02:26:09.229Z,46.9
2023-01-19T02:27:10.612Z,46.9
2023-01-19T02:28:12.068Z,46.9
2023-01-19T02:29:13.467Z,46.7
2023-01-19T02:30:14.875Z,46.8
2023-01-19T02:31:16.305Z,46.4
2023-01-19T02:32:17.706Z,46.6
2023-01-19T02:33:19.121Z,46.7
2023-01-19T02:34:20.554Z,46.8
2023-01-19T02:35:21.965Z,46.7
2023-01-19T02:36:23.389Z,46.5
2023-01-19T02:37:24.796Z,46.8
2023-01-19T02:38:26.185Z,46.7
2023-01-19T02:39:27.580Z,47
2023-01-19T02:40:29.005Z,46.7
2023-01-19T02:41:30.412Z,46.6
2023-01-19T02:42:31.811Z,46.5
2023-01-19T02:43:33.271Z,46.8
2023-01-19T02:44:34.656Z,46.7
2023-01-19T02:45:36.061Z,46.6
2023-01-19T02:46:37.738Z,46.9
2023-01-19T02:47:39.164Z,46.7
2023-01-19T02:48:40.545Z,46.9
2023-01-19T02:49:41.949Z,46.8
2023-01-19T02:50:43.324Z,46.9
2023-01-19T02:51:44.746Z,46.8
2023-01-19T02:52:46.137Z,46.9
2023-01-19T02:53:47.545Z,46.8
2023-01-19T02:54:48.955Z,46.8
2023-01-19T02:55:50.370Z,46.8
2023-01-19T02:56:51.770Z,46.7
2023-01-19T02:57:53.164Z,46.5
2023-01-19T02:58:54.944Z,46.5
2023-01-19T02:59:56.350Z,46.4
2023-01-19T03:00:58.040Z,46.6
2023-01-19T03:01:59.688Z,46.5
2023-01-19T03:03:02.201Z,46.3
2023-01-19T03:04:03.973Z,46.5
2023-01-19T03:05:06.223Z,46.2
2023-01-19T03:06:07.650Z,46.5
2023-01-19T03:07:09.060Z,46.2
2023-01-19T03:08:10.472Z,46.5
2023-01-19T03:09:11.868Z,46.6
2023-01-19T03:10:13.291Z,46.4
2023-01-19T03:11:14.715Z,46.4
2023-01-19T03:12:16.125Z,46.3
2023-01-19T03:13:17.539Z,46.5
2023-01-19T03:14:19.020Z,46.5
2023-01-19T03:15:20.444Z,46.6
2023-01-19T03:16:23.065Z,46.4
2023-01-19T03:17:24.521Z,46.2
2023-01-19T03:18:25.914Z,46.4
2023-01-19T03:19:27.420Z,46.4
2023-01-19T03:20:28.870Z,46.4
2023-01-19T03:21:30.414Z,46.3
2023-01-19T03:22:31.935Z,46.5
2023-01-19T03:23:33.328Z,46.6
2023-01-19T03:24:37.916Z,46.6
2023-01-19T03:25:39.445Z,46.2
2023-01-19T03:26:40.827Z,46.5
2023-01-19T03:27:42.253Z,46.6
2023-01-19T03:28:43.697Z,46.6
2023-01-19T03:29:45.188Z,46.7
2023-01-19T03:30:46.803Z,46.6
2023-01-19T03:31:48.313Z,46.8
2023-01-19T03:32:49.738Z,46.7
2023-01-19T03:33:51.148Z,46.7
2023-01-19T03:34:52.550Z,46.6
2023-01-19T03:35:53.955Z,46.7
2023-01-19T03:36:55.407Z,46.7
2023-01-19T03:37:56.811Z,47
2023-01-19T03:38:58.215Z,46.7
2023-01-19T03:39:59.789Z,46.8
2023-01-19T03:41:01.189Z,46.9
2023-01-19T03:42:02.603Z,46.8
2023-01-19T03:43:04.442Z,46.8
2023-01-19T03:44:05.839Z,46.8
2023-01-19T03:45:07.316Z,46.9
2023-01-19T03:46:08.818Z,46.9
2023-01-19T03:47:10.269Z,46.9
2023-01-19T03:48:11.663Z,46.9
2023-01-19T03:49:13.067Z,46.8
2023-01-19T03:50:14.471Z,46.9
2023-01-19T03:51:15.897Z,46.9
2023-01-19T03:52:17.294Z,46.8
2023-01-19T03:53:18.689Z,46.9
2023-01-19T03:54:20.139Z,46.9
2023-01-19T03:55:21.544Z,46.9
2023-01-19T03:56:22.969Z,47
2023-01-19T03:57:24.358Z,46.9
2023-01-19T03:58:25.774Z,46.6
2023-01-19T03:59:27.219Z,46.7
2023-01-19T04:00:28.737Z,46.1
2023-01-19T04:01:30.473Z,46.7
2023-01-19T04:02:32.050Z,47
2023-01-19T04:03:33.868Z,46.4
2023-01-19T04:04:35.272Z,46.6
2023-01-19T04:05:36.693Z,46.8
2023-01-19T04:06:38.095Z,47
2023-01-19T04:07:39.479Z,46.6
2023-01-19T04:08:40.922Z,46.9
2023-01-19T04:09:42.352Z,47
2023-01-19T04:10:43.747Z,47
2023-01-19T04:11:45.185Z,46.7
2023-01-19T04:12:46.636Z,46.9
2023-01-19T04:13:48.026Z,46.6
2023-01-19T04:14:49.421Z,46.9
2023-01-19T04:15:51.060Z,47.2
2023-01-19T04:16:52.508Z,46.8
2023-01-19T04:17:53.923Z,46.9
2023-01-19T04:18:55.302Z,46.8
2023-01-19T04:19:56.666Z,46.6
2023-01-19T04:20:58.080Z,46.8
2023-01-19T04:21:59.502Z,47
2023-01-19T04:23:02.434Z,47.1
2023-01-19T04:24:04.009Z,47
2023-01-19T04:25:05.391Z,47
2023-01-19T04:26:06.795Z,46.7
2023-01-19T04:27:08.350Z,46.7
2023-01-19T04:28:09.753Z,47.5
2023-01-19T04:29:11.180Z,47.5
2023-01-19T04:30:12.573Z,47.3
2023-01-19T04:31:14.097Z,47.5
2023-01-19T04:32:15.545Z,47.5
2023-01-19T04:33:16.943Z,47.8
2023-01-19T04:34:18.415Z,48
2023-01-19T04:35:19.822Z,48.1
2023-01-19T04:36:21.290Z,48
2023-01-19T04:37:22.766Z,48.2
2023-01-19T04:38:24.201Z,48.4
2023-01-19T04:39:25.669Z,48.5
2023-01-19T04:40:27.052Z,48.3
2023-01-19T04:41:31.213Z,48.3
2023-01-19T04:42:32.727Z,48.6
2023-01-19T04:43:34.127Z,48.5
2023-01-19T04:44:35.582Z,48
2023-01-19T04:45:36.982Z,48.2
2023-01-19T04:46:38.553Z,48
2023-01-19T04:47:39.977Z,48.5
2023-01-19T04:48:42.428Z,48.3
2023-01-19T04:49:43.834Z,48.2
2023-01-19T04:50:45.284Z,48.9
2023-01-19T04:51:46.692Z,48.8
2023-01-19T04:52:48.093Z,48.8
2023-01-19T04:53:49.495Z,49.1
2023-01-19T04:54:50.895Z,49.2
2023-01-19T04:55:52.331Z,48.5
2023-01-19T04:56:53.726Z,43.9
2023-01-19T04:57:55.137Z,40.5
2023-01-19T04:58:56.522Z,39.6
2023-01-19T04:59:57.924Z,37.8
2023-01-19T05:00:59.542Z,36.1
2023-01-19T05:02:01.213Z,36.9
2023-01-19T05:03:04.069Z,34.9
2023-01-19T05:04:05.746Z,34
2023-01-19T05:05:07.138Z,34.3
2023-01-19T05:06:08.531Z,33.4
2023-01-19T05:07:09.924Z,33.3
2023-01-19T05:08:11.328Z,32.8
2023-01-19T05:09:12.731Z,32.5
2023-01-19T05:10:14.135Z,32.2
2023-01-19T05:11:15.557Z,32.3
2023-01-19T05:12:16.971Z,31.6
2023-01-19T05:13:18.363Z,31.1
2023-01-19T05:14:19.745Z,31.3
2023-01-19T05:15:21.142Z,30.8
2023-01-19T05:16:22.673Z,30.6
2023-01-19T05:17:24.443Z,30.9
2023-01-19T05:18:25.918Z,30.7
2023-01-19T05:19:27.437Z,31.1
2023-01-19T05:20:28.835Z,30.6
2023-01-19T05:21:30.255Z,30.3
2023-01-19T05:22:31.652Z,30.2
2023-01-19T05:23:33.052Z,30.1
2023-01-19T05:24:34.457Z,30.2
2023-01-19T05:25:35.880Z,29.8
2023-01-19T05:26:37.293Z,30
2023-01-19T05:27:38.693Z,29.8
2023-01-19T05:28:40.099Z,29
2023-01-19T05:29:41.527Z,29.5
2023-01-19T05:30:43.116Z,29.6
2023-01-19T05:31:44.629Z,29.1
2023-01-19T05:32:46.100Z,29.3
2023-01-19T05:33:47.502Z,29.2
2023-01-19T05:34:48.927Z,29.1
2023-01-19T05:35:50.353Z,29.7
2023-01-19T05:36:51.774Z,29
2023-01-19T05:37:53.208Z,29
2023-01-19T05:38:54.601Z,28.9
2023-01-19T05:39:55.994Z,29.2
2023-01-19T05:40:57.409Z,28.8
2023-01-19T05:41:58.828Z,28.5
2023-01-19T05:43:01.405Z,28.7
2023-01-19T05:44:03.055Z,28.8
2023-01-19T05:45:04.451Z,28.5
2023-01-19T05:46:05.902Z,28.6
2023-01-19T05:47:07.575Z,28.4
2023-01-19T05:48:10.480Z,28.5
2023-01-19T05:49:11.892Z,28.8
2023-01-19T05:50:13.304Z,28.4
2023-01-19T05:51:14.735Z,28.4
2023-01-19T05:52:16.138Z,28.6
2023-01-19T05:53:17.561Z,28.3
2023-01-19T05:54:18.975Z,28.3
2023-01-19T05:55:20.365Z,28.4
2023-01-19T05:56:21.770Z,28.3
2023-01-19T05:57:23.173Z,28.3
2023-01-19T05:58:24.567Z,28.2
2023-01-19T05:59:25.951Z,28.6
2023-01-19T06:00:27.373Z,28
2023-01-19T06:01:29.031Z,28.3
2023-01-19T06:02:30.759Z,28
2023-01-19T06:03:32.649Z,28
2023-01-19T06:04:34.097Z,28
2023-01-19T06:05:35.529Z,28.2
2023-01-19T06:06:36.970Z,27.9
2023-01-19T06:07:38.382Z,27.9
2023-01-19T06:08:39.767Z,28.1
2023-01-19T06:09:41.179Z,28.1
2023-01-19T06:10:42.624Z,27.8
2023-01-19T06:11:44.045Z,27.9
2023-01-19T06:12:45.470Z,27.8
2023-01-19T06:13:46.871Z,27.6
2023-01-19T06:14:48.304Z,27.8
2023-01-19T06:15:49.747Z,27.8
2023-01-19T06:16:51.197Z,27.8
2023-01-19T06:17:52.608Z,27.5
2023-01-19T06:18:54.182Z,28
2023-01-19T06:19:55.627Z,28.4
2023-01-19T06:20:57.035Z,27.8
2023-01-19T06:21:58.448Z,27.9
2023-01-19T06:23:00.818Z,27.6
2023-01-19T06:24:02.357Z,27.7
2023-01-19T06:25:03.768Z,27.6
2023-01-19T06:26:05.148Z,27.6
2023-01-19T06:27:06.747Z,27.5
2023-01-19T06:28:08.155Z,27.8
2023-01-19T06:29:09.540Z,27.7
2023-01-19T06:30:10.935Z,27.5
2023-01-19T06:31:12.411Z,28
2023-01-19T06:32:13.899Z,27.5
2023-01-19T06:33:15.280Z,27.5
2023-01-19T06:34:17.011Z,27.4
2023-01-19T06:35:18.455Z,27.7
2023-01-19T06:36:19.882Z,27.4
2023-01-19T06:37:21.302Z,27.4
2023-01-19T06:38:22.726Z,27.3
2023-01-19T06:39:24.120Z,27.3
2023-01-19T06:40:25.532Z,27.6
2023-01-19T06:41:26.943Z,27.8
2023-01-19T06:42:28.379Z,27.8
2023-01-19T06:43:29.790Z,27.7
2023-01-19T06:44:31.228Z,27.4
2023-01-19T06:45:32.666Z,27.1
2023-01-19T06:46:34.064Z,27.1
2023-01-19T06:47:35.462Z,27.3
2023-01-19T06:48:36.887Z,27.1
2023-01-19T06:49:38.354Z,27.2
2023-01-19T06:50:39.769Z,27.1
2023-01-19T06:51:41.190Z,27
2023-01-19T06:52:42.939Z,26.9
2023-01-19T06:53:44.361Z,27.1
2023-01-19T06:54:45.799Z,26.8
2023-01-19T06:55:47.259Z,26.9
2023-01-19T06:56:48.692Z,27.1
2023-01-19T06:57:50.455Z,26.6
2023-01-19T06:58:51.897Z,26.8
2023-01-19T06:59:53.282Z,27.2
2023-01-19T07:00:54.963Z,27.8
2023-01-19T07:01:57.113Z,26.8
2023-01-19T07:02:59.885Z,26.5
2023-01-19T07:04:01.749Z,26.6
2023-01-19T07:05:03.195Z,26.4
2023-01-19T07:06:04.618Z,26.5
2023-01-19T07:07:06.019Z,26.7
2023-01-19T07:08:07.414Z,26.5
2023-01-19T07:09:08.848Z,26.4
2023-01-19T07:10:10.264Z,26.1
2023-01-19T07:11:30.540Z,25.9
2023-01-19T07:12:34.910Z,26
2023-01-19T07:13:36.961Z,26.1
2023-01-19T07:14:38.594Z,26.2
2023-01-19T07:15:40.027Z,26.3
2023-01-19T07:16:41.764Z,26
2023-01-19T07:17:43.210Z,25.8
2023-01-19T07:18:44.626Z,26.1
2023-01-19T07:19:46.048Z,25.9
2023-01-19T07:20:47.506Z,26.1
2023-01-19T07:21:48.914Z,26
2023-01-19T07:22:50.316Z,25.9
2023-01-19T07:23:51.759Z,25.6
2023-01-19T07:24:53.155Z,25.6
2023-01-19T07:25:54.559Z,25.6
2023-01-19T07:26:55.963Z,25.9
2023-01-19T07:27:57.392Z,26
2023-01-19T07:28:58.837Z,25.6
2023-01-19T07:30:00.281Z,25.6
2023-01-19T07:31:01.924Z,25.7
2023-01-19T07:32:03.382Z,25.8
2023-01-19T07:33:04.862Z,26.1
2023-01-19T07:34:06.369Z,25.6
2023-01-19T07:35:07.764Z,25.4
2023-01-19T07:36:09.419Z,25.5
2023-01-19T07:37:10.825Z,25.7
2023-01-19T07:38:12.223Z,25.4
2023-01-19T07:39:13.627Z,25.3
2023-01-19T07:40:15.057Z,25.3
2023-01-19T07:41:16.481Z,25.3
2023-01-19T07:42:17.894Z,25.3
2023-01-19T07:43:19.287Z,25.6
2023-01-19T07:44:20.871Z,25.7
2023-01-19T07:45:22.273Z,25.5
2023-01-19T07:46:23.839Z,25.3
2023-01-19T07:47:25.289Z,25.1
2023-01-19T07:48:26.706Z,25.4
2023-01-19T07:49:28.121Z,25.4
2023-01-19T07:50:29.538Z,25.2
2023-01-19T07:51:30.981Z,25.8
2023-01-19T07:52:32.416Z,25.1
2023-01-19T07:53:34.051Z,25.7
2023-01-19T07:54:35.531Z,26.1
2023-01-19T07:55:36.935Z,25.4
2023-01-19T07:56:38.327Z,25.1
2023-01-19T07:57:39.753Z,25.5
2023-01-19T07:58:41.179Z,25.1
2023-01-19T07:59:42.618Z,25.5
2023-01-19T08:00:44.110Z,25.1
2023-01-19T08:01:46.068Z,25
2023-01-19T08:02:47.555Z,25.1
2023-01-19T08:03:48.967Z,25.4
2023-01-19T08:04:50.525Z,25
2023-01-19T08:05:51.983Z,25.1
2023-01-19T08:06:53.634Z,25.5
2023-01-19T08:07:55.045Z,24.9
2023-01-19T08:08:56.467Z,25.2
2023-01-19T08:09:57.871Z,25.2
2023-01-19T08:10:59.260Z,25.7
2023-01-19T08:12:00.704Z,25.6
2023-01-19T08:13:03.061Z,25.6
2023-01-19T08:14:08.197Z,25.2
2023-01-19T08:15:09.740Z,25.2
2023-01-19T08:16:11.331Z,25.1
2023-01-19T08:17:12.827Z,25.7
2023-01-19T08:18:14.219Z,26.2
2023-01-19T08:19:15.613Z,25.5
2023-01-19T08:20:17.056Z,25.3
2023-01-19T08:21:18.464Z,25.1
2023-01-19T08:22:19.932Z,25.2
2023-01-19T08:23:21.338Z,25.5
2023-01-19T08:24:23.001Z,25.2
2023-01-19T08:25:24.461Z,25.9
2023-01-19T08:26:25.885Z,25.3
2023-01-19T08:27:27.316Z,25.5
2023-01-19T08:28:28.760Z,25.5
2023-01-19T08:29:30.202Z,24.9
2023-01-19T08:30:31.651Z,25.1
2023-01-19T08:31:33.345Z,24.9
2023-01-19T08:32:34.872Z,25.5
2023-01-19T08:33:36.298Z,25.7
2023-01-19T08:34:37.710Z,25.6
2023-01-19T08:35:39.113Z,25.6
2023-01-19T08:36:40.533Z,25.5
2023-01-19T08:37:41.990Z,26.6
2023-01-19T08:38:43.470Z,25.4
2023-01-19T08:39:44.913Z,25.3
2023-01-19T08:40:46.325Z,25.5
2023-01-19T08:41:47.730Z,25.5
2023-01-19T08:42:49.153Z,25
2023-01-19T08:43:50.558Z,25.2
2023-01-19T08:44:58.753Z,25.3
2023-01-19T08:46:00.349Z,25.7
2023-01-19T08:47:02.112Z,25.7
2023-01-19T08:48:03.629Z,26.1
2023-01-19T08:49:05.037Z,25.4
2023-01-19T08:50:06.529Z,25.3
2023-01-19T08:51:07.966Z,25.4
2023-01-19T08:52:09.386Z,25.8
2023-01-19T08:53:10.858Z,25.6
2023-01-19T08:54:12.263Z,26
2023-01-19T08:55:13.665Z,26
2023-01-19T08:56:15.082Z,25
2023-01-19T08:57:16.512Z,25.7
2023-01-19T08:58:17.947Z,25.6
2023-01-19T08:59:19.381Z,26
2023-01-19T09:00:20.996Z,26.4
2023-01-19T09:01:22.977Z,25.9
2023-01-19T09:02:24.598Z,25.7
2023-01-19T09:03:26.281Z,26
2023-01-19T09:04:27.695Z,25.9
2023-01-19T09:05:29.138Z,25.5
2023-01-19T09:06:30.562Z,25.9
2023-01-19T09:07:35.768Z,25.6
2023-01-19T09:08:37.381Z,25.3
2023-01-19T09:09:38.899Z,26
2023-01-19T09:10:40.305Z,25.4
2023-01-19T09:11:41.722Z,25.5
2023-01-19T09:12:43.373Z,25.9
2023-01-19T09:13:44.979Z,25.9
2023-01-19T09:14:46.372Z,25.5
2023-01-19T09:15:48.047Z,25.1
2023-01-19T09:16:49.600Z,25.7
2023-01-19T09:17:51.065Z,25.4
2023-01-19T09:18:52.464Z,25.3
2023-01-19T09:19:53.868Z,26
2023-01-19T09:20:55.271Z,26.2
2023-01-19T09:21:56.684Z,25.9
2023-01-19T09:22:58.066Z,25.3
2023-01-19T09:23:59.554Z,25.1
2023-01-19T09:25:00.967Z,26
2023-01-19T09:26:02.379Z,26.4
2023-01-19T09:27:03.781Z,25.8
2023-01-19T09:28:05.164Z,25.3
2023-01-19T09:29:06.590Z,25.3
2023-01-19T09:30:08.019Z,25.6
2023-01-19T09:31:09.889Z,25.4
2023-01-19T09:32:11.414Z,25.7
2023-01-19T09:33:12.855Z,25.6
2023-01-19T09:34:14.263Z,25.4
2023-01-19T09:35:15.713Z,25.3
2023-01-19T09:36:17.129Z,25.1
2023-01-19T09:37:18.554Z,25.3
2023-01-19T09:38:20.029Z,25.8
2023-01-19T09:39:21.499Z,25.6
2023-01-19T09:40:22.908Z,25.7
2023-01-19T09:41:24.309Z,25.8
2023-01-19T09:42:25.727Z,25.5
2023-01-19T09:43:27.139Z,26.3
2023-01-19T09:44:28.574Z,25.9
2023-01-19T09:45:30.126Z,25.6
2023-01-19T09:46:31.632Z,25.9
2023-01-19T09:47:33.072Z,26.2
2023-01-19T09:48:34.474Z,26
2023-01-19T09:49:35.866Z,26
2023-01-19T09:50:37.290Z,26
2023-01-19T09:51:38.685Z,25.3
2023-01-19T09:52:40.149Z,26
2023-01-19T09:53:41.561Z,25.9
2023-01-19T09:54:43.048Z,25.8
2023-01-19T09:55:44.688Z,25.6
2023-01-19T09:56:46.112Z,25.1
2023-01-19T09:57:47.522Z,25.4
2023-01-19T09:58:48.925Z,25.4
2023-01-19T09:59:50.328Z,25
2023-01-19T10:00:51.846Z,25.6
2023-01-19T10:01:53.556Z,25.1
2023-01-19T10:02:55.199Z,25.5
2023-01-19T10:03:56.660Z,25.1
2023-01-19T10:04:58.068Z,25
2023-01-19T10:05:59.478Z,25.4
2023-01-19T10:07:00.883Z,24.9
2023-01-19T10:08:03.246Z,24.8
2023-01-19T10:09:04.924Z,25
2023-01-19T10:10:06.486Z,25
2023-01-19T10:11:07.922Z,25.4
2023-01-19T10:12:09.345Z,25.4
2023-01-19T10:13:10.748Z,25.5
2023-01-19T10:14:12.132Z,25.4
2023-01-19T10:15:13.562Z,25.5
2023-01-19T10:16:15.193Z,25.1
2023-01-19T10:17:16.622Z,25.3
2023-01-19T10:18:18.021Z,25.5
2023-01-19T10:19:19.420Z,25.2
2023-01-19T10:20:20.832Z,25.5
2023-01-19T10:21:22.650Z,25.6
2023-01-19T10:22:24.318Z,25.4
2023-01-19T10:23:25.733Z,25.6
2023-01-19T10:24:27.179Z,25.5
2023-01-19T10:25:28.802Z,25.6
2023-01-19T10:26:30.331Z,25.4
2023-01-19T10:27:31.906Z,25.4
2023-01-19T10:28:33.363Z,25.5
2023-01-19T10:29:34.868Z,25.7
2023-01-19T10:30:36.442Z,25.6
2023-01-19T10:31:38.451Z,25.2
2023-01-19T10:32:40.108Z,25.2
2023-01-19T10:33:41.652Z,25.3
2023-01-19T10:34:43.091Z,25.4
2023-01-19T10:35:44.553Z,25.3
2023-01-19T10:36:45.972Z,25.5
2023-01-19T10:37:47.388Z,25.5
2023-01-19T10:38:48.939Z,25.9
2023-01-19T10:39:50.407Z,25.8
2023-01-19T10:40:51.942Z,25.9
2023-01-19T10:41:53.666Z,25.5
2023-01-19T10:42:55.214Z,25.7
2023-01-19T10:43:56.691Z,25.4
2023-01-19T10:44:58.149Z,25.3
2023-01-19T10:45:59.856Z,25.5
2023-01-19T10:47:01.317Z,25.4
2023-01-19T10:48:02.729Z,25.2
2023-01-19T10:49:04.196Z,25.3
2023-01-19T10:50:05.645Z,25.4
2023-01-19T10:51:07.079Z,25.5
2023-01-19T10:52:08.495Z,25.1
2023-01-19T10:53:09.955Z,25.6
2023-01-19T10:54:11.552Z,25.4
2023-01-19T10:55:13.003Z,25.6
2023-01-19T10:56:14.686Z,25.4
2023-01-19T10:57:16.123Z,25.3
2023-01-19T10:58:19.208Z,25.3
2023-01-19T10:59:20.681Z,25.8
2023-01-19T11:00:22.173Z,25.5
2023-01-19T11:01:24.120Z,25.5
2023-01-19T11:02:26.127Z,25.7
2023-01-19T11:03:27.777Z,25.7
2023-01-19T11:04:29.382Z,25.8
2023-01-19T11:05:30.880Z,26.1
2023-01-19T11:06:32.303Z,26.2
2023-01-19T11:07:33.759Z,26.1
2023-01-19T11:08:35.161Z,26
2023-01-19T11:09:36.577Z,25.9
2023-01-19T11:10:38.002Z,25.9
2023-01-19T11:11:39.462Z,26
2023-01-19T11:12:40.874Z,26
2023-01-19T11:13:42.312Z,26.1
2023-01-19T11:14:43.959Z,26.2
2023-01-19T11:15:45.357Z,26.3
2023-01-19T11:16:46.877Z,26.2
2023-01-19T11:17:48.612Z,26
2023-01-19T11:18:49.984Z,25.9
2023-01-19T11:19:51.388Z,25.9
2023-01-19T11:20:52.850Z,26.1
2023-01-19T11:21:54.251Z,26.1
2023-01-19T11:22:55.662Z,25.9
2023-01-19T11:23:57.099Z,25.9
2023-01-19T11:24:58.497Z,25.8
2023-01-19T11:25:59.911Z,25.9
2023-01-19T11:27:01.495Z,26
2023-01-19T11:28:02.928Z,26
2023-01-19T11:29:04.358Z,26.1
2023-01-19T11:30:05.753Z,25.9
2023-01-19T11:31:07.355Z,26
2023-01-19T11:32:08.914Z,25.9
2023-01-19T11:33:10.424Z,26.1
2023-01-19T11:34:11.828Z,26.1
2023-01-19T11:35:13.222Z,25.9
2023-01-19T11:36:14.614Z,25.8
2023-01-19T11:37:16.103Z,25.7
2023-01-19T11:38:17.520Z,25.7
2023-01-19T11:39:18.914Z,25.7
2023-01-19T11:40:20.329Z,25.8
2023-01-19T11:41:21.764Z,25.9
2023-01-19T11:42:23.357Z,25.8
2023-01-19T11:43:24.770Z,25.7
2023-01-19T11:44:26.177Z,25.8
2023-01-19T11:45:27.916Z,25.8
2023-01-19T11:46:29.362Z,25.8
2023-01-19T11:47:30.758Z,25.8
2023-01-19T11:48:32.284Z,25.6
2023-01-19T11:49:33.704Z,25.9
2023-01-19T11:50:35.129Z,25.8
2023-01-19T11:51:36.553Z,25.7
2023-01-19T11:52:37.991Z,25.4
2023-01-19T11:53:39.404Z,25.7
2023-01-19T11:54:40.889Z,25.6
2023-01-19T11:55:42.291Z,25.6
2023-01-19T11:56:43.684Z,25.5
2023-01-19T11:57:45.223Z,25.4
2023-01-19T11:58:46.674Z,25.5
2023-01-19T11:59:49.750Z,25.4
2023-01-19T12:00:51.240Z,25.6
2023-01-19T12:01:52.757Z,25.7
2023-01-19T12:02:54.172Z,25.4
2023-01-19T12:03:55.594Z,25.4
2023-01-19T12:04:56.989Z,25.4
2023-01-19T12:05:58.409Z,25.6
2023-01-19T12:06:59.832Z,25.6
2023-01-19T12:08:05.398Z,25.7
2023-01-19T12:09:07.899Z,25.9
2023-01-19T12:10:09.302Z,25.7
2023-01-19T12:11:10.707Z,25.6
2023-01-19T12:12:12.123Z,25.8
2023-01-19T12:13:13.642Z,25.5
2023-01-19T12:14:15.094Z,25.6
2023-01-19T12:15:16.494Z,25.6
2023-01-19T12:16:18.105Z,25.7
2023-01-19T12:17:19.506Z,25.6
2023-01-19T12:18:20.911Z,25.5
2023-01-19T12:19:22.308Z,25.8
2023-01-19T12:20:23.705Z,25.4
2023-01-19T12:21:25.133Z,25.9
2023-01-19T12:22:26.536Z,25.7
2023-01-19T12:23:27.948Z,25.9
2023-01-19T12:24:29.670Z,25.7
2023-01-19T12:25:31.183Z,25.8
2023-01-19T12:26:32.618Z,25.8
2023-01-19T12:27:34.024Z,25.4
2023-01-19T12:28:35.534Z,25.4
2023-01-19T12:29:36.996Z,25.7
2023-01-19T12:30:38.653Z,25.6
2023-01-19T12:31:40.278Z,25.8
2023-01-19T12:32:41.854Z,25.5
2023-01-19T12:33:43.249Z,25.4
2023-01-19T12:34:44.653Z,25.4
2023-01-19T12:35:46.047Z,25.4
2023-01-19T12:36:47.442Z,25.6
2023-01-19T12:37:48.954Z,25.4
2023-01-19T12:38:50.411Z,25.4
2023-01-19T12:39:51.852Z,25.8
2023-01-19T12:40:53.268Z,25.5
2023-01-19T12:41:54.664Z,25.6
2023-01-19T12:42:56.078Z,25.4
2023-01-19T12:43:57.538Z,25.5
2023-01-19T12:44:58.976Z,25.4
2023-01-19T12:46:00.615Z,25.5
2023-01-19T12:47:02.119Z,25.6
2023-01-19T12:48:03.504Z,25.5
2023-01-19T12:49:04.908Z,25.7
2023-01-19T12:50:06.321Z,25.5
2023-01-19T12:51:07.722Z,25.4
2023-01-19T12:52:09.136Z,25.6
2023-01-19T12:53:10.530Z,25.6
2023-01-19T12:54:11.941Z,25.7
2023-01-19T12:55:13.358Z,25.8
2023-01-19T12:56:14.987Z,25.6
2023-01-19T12:57:16.395Z,25.7
2023-01-19T12:58:17.784Z,25.5
2023-01-19T12:59:19.209Z,25.8
2023-01-19T13:00:21.269Z,25.7
2023-01-19T13:01:22.876Z,25.8
2023-01-19T13:02:24.578Z,25.9
2023-01-19T13:03:25.977Z,26
2023-01-19T13:04:27.361Z,25.6
2023-01-19T13:05:29.695Z,25.5
2023-01-19T13:06:32.357Z,25.6
2023-01-19T13:07:33.772Z,25.4
2023-01-19T13:08:35.152Z,25.6
2023-01-19T13:09:36.540Z,25.4
2023-01-19T13:10:37.929Z,25.7
2023-01-19T13:11:39.332Z,25.6
2023-01-19T13:12:40.737Z,25.7
2023-01-19T13:13:42.198Z,25.5
2023-01-19T13:14:43.807Z,25.6
2023-01-19T13:15:45.342Z,25.8
2023-01-19T13:16:46.782Z,25.6
2023-01-19T13:17:50.249Z,25.6
2023-01-19T13:18:51.646Z,25.7
2023-01-19T13:19:53.088Z,25.8
2023-01-19T13:20:54.504Z,25.9
2023-01-19T13:21:55.922Z,25.4
2023-01-19T13:22:57.325Z,26
2023-01-19T13:23:58.749Z,25.8
2023-01-19T13:25:00.691Z,25.9
2023-01-19T13:26:02.310Z,25.7
2023-01-19T13:27:03.741Z,25.9
2023-01-19T13:28:05.137Z,26
2023-01-19T13:29:06.554Z,26.4
2023-01-19T13:30:08.094Z,25.8
2023-01-19T13:31:09.861Z,25.5
2023-01-19T13:32:11.403Z,25.7
2023-01-19T13:33:12.805Z,25.6
2023-01-19T13:34:14.210Z,25.5
2023-01-19T13:35:15.611Z,26.1
2023-01-19T13:36:17.048Z,25.6
2023-01-19T13:37:18.471Z,25.6
2023-01-19T13:38:19.919Z,25.8
2023-01-19T13:39:21.283Z,25.6
2023-01-19T13:40:22.708Z,25.4
2023-01-19T13:41:24.134Z,25.9
2023-01-19T13:42:25.544Z,25.7
2023-01-19T13:43:27.017Z,25.4
2023-01-19T13:44:28.501Z,25.5